sensor_id;sensor_type;location;lat;lon;timestamp;P1;durP1;ratioP1;P2;durP2;ratioP2
78143;SDS011;67394;52.522;13.622;2023-06-10T00:00:43;2.55;;;1.33;;
78143;SDS011;67394;52.522;13.622;2023-06-10T00:03:11;2.53;;;2.30;;
78143;SDS011;67394;52.522;13.622;2023-06-10T00:05:37;2.67;;;1.83;;
78143;SDS011;67394;52.522;13.622;2023-06-10T00:08:04;5.82;;;2.25;;
78143;SDS011;67394;52.522;13.622;2023-06-10T00:10:35;3.38;;;1.73;;
78143;SDS011;67394;52.522;13.622;2023-06-10T00:13:03;2.30;;;1.60;;
78143;SDS011;67394;52.522;13.622;2023-06-10T00:15:30;3.72;;;2.00;;
78143;SDS011;67394;52.522;13.622;2023-06-10T00:20:23;2.88;;;2.05;;
78143;SDS011;67394;52.522;13.622;2023-06-10T00:22:50;2.83;;;1.63;;
78143;SDS011;67394;52.522;13.622;2023-06-10T00:25:16;4.38;;;2.00;;
78143;SDS011;67394;52.522;13.622;2023-06-10T00:27:43;2.55;;;2.03;;
78143;SDS011;67394;52.522;13.622;2023-06-10T00:30:09;2.47;;;2.03;;
78143;SDS011;67394;52.522;13.622;2023-06-10T00:35:03;2.83;;;2.00;;
78143;SDS011;67394;52.522;13.622;2023-06-10T00:37:31;4.45;;;2.20;;
78143;SDS011;67394;52.522;13.622;2023-06-10T00:39:58;1.77;;;1.35;;
78143;SDS011;67394;52.522;13.622;2023-06-10T00:42:24;2.70;;;1.90;;
78143;SDS011;67394;52.522;13.622;2023-06-10T00:44:51;2.05;;;1.85;;
78143;SDS011;67394;52.522;13.622;2023-06-10T00:47:17;2.45;;;1.70;;
78143;SDS011;67394;52.522;13.622;2023-06-10T00:49:45;5.78;;;2.13;;
78143;SDS011;67394;52.522;13.622;2023-06-10T00:52:12;4.45;;;2.00;;
78143;SDS011;67394;52.522;13.622;2023-06-10T00:54:40;5.45;;;1.80;;
78143;SDS011;67394;52.522;13.622;2023-06-10T00:57:07;2.70;;;1.75;;
78143;SDS011;67394;52.522;13.622;2023-06-10T00:59:34;2.83;;;1.88;;
78143;SDS011;67394;52.522;13.622;2023-06-10T01:02:00;2.70;;;1.80;;
78143;SDS011;67394;52.522;13.622;2023-06-10T01:04:27;4.82;;;2.30;;
78143;SDS011;67394;52.522;13.622;2023-06-10T01:09:42;3.25;;;2.10;;
78143;SDS011;67394;52.522;13.622;2023-06-10T01:15:00;4.28;;;1.88;;
78143;SDS011;67394;52.522;13.622;2023-06-10T01:17:27;6.55;;;2.08;;
78143;SDS011;67394;52.522;13.622;2023-06-10T01:19:55;4.05;;;2.17;;
78143;SDS011;67394;52.522;13.622;2023-06-10T01:22:26;3.03;;;1.88;;
78143;SDS011;67394;52.522;13.622;2023-06-10T01:24:54;2.75;;;1.98;;
78143;SDS011;67394;52.522;13.622;2023-06-10T01:27:21;3.63;;;2.15;;
78143;SDS011;67394;52.522;13.622;2023-06-10T01:29:50;3.55;;;1.70;;
78143;SDS011;67394;52.522;13.622;2023-06-10T01:32:37;5.10;;;1.85;;
78143;SDS011;67394;52.522;13.622;2023-06-10T01:35:06;2.63;;;1.95;;
78143;SDS011;67394;52.522;13.622;2023-06-10T01:37:35;1.65;;;1.38;;
78143;SDS011;67394;52.522;13.622;2023-06-10T01:40:05;2.65;;;1.95;;
78143;SDS011;67394;52.522;13.622;2023-06-10T01:42:32;2.85;;;1.58;;
78143;SDS011;67394;52.522;13.622;2023-06-10T01:47:25;2.67;;;1.60;;
78143;SDS011;67394;52.522;13.622;2023-06-10T01:49:52;2.50;;;1.80;;
78143;SDS011;67394;52.522;13.622;2023-06-10T01:52:18;4.78;;;2.20;;
78143;SDS011;67394;52.522;13.622;2023-06-10T01:54:45;3.47;;;1.50;;
78143;SDS011;67394;52.522;13.622;2023-06-10T01:57:11;2.17;;;1.67;;
78143;SDS011;67394;52.522;13.622;2023-06-10T01:59:38;5.05;;;2.03;;
78143;SDS011;67394;52.522;13.622;2023-06-10T02:02:04;2.47;;;1.90;;
78143;SDS011;67394;52.522;13.622;2023-06-10T02:04:31;4.97;;;1.67;;
78143;SDS011;67394;52.522;13.622;2023-06-10T02:06:57;3.10;;;1.85;;
78143;SDS011;67394;52.522;13.622;2023-06-10T02:09:24;6.78;;;2.35;;
78143;SDS011;67394;52.522;13.622;2023-06-10T02:11:51;2.55;;;1.55;;
78143;SDS011;67394;52.522;13.622;2023-06-10T02:14:17;2.63;;;1.98;;
78143;SDS011;67394;52.522;13.622;2023-06-10T02:16:44;2.67;;;1.75;;
78143;SDS011;67394;52.522;13.622;2023-06-10T02:19:10;3.03;;;2.03;;
78143;SDS011;67394;52.522;13.622;2023-06-10T02:21:36;2.65;;;2.05;;
78143;SDS011;67394;52.522;13.622;2023-06-10T02:24:03;3.97;;;3.00;;
78143;SDS011;67394;52.522;13.622;2023-06-10T02:26:30;3.63;;;1.85;;
78143;SDS011;67394;52.522;13.622;2023-06-10T02:28:56;4.55;;;1.92;;
78143;SDS011;67394;52.522;13.622;2023-06-10T02:31:23;2.47;;;2.00;;
78143;SDS011;67394;52.522;13.622;2023-06-10T02:33:49;4.10;;;2.28;;
78143;SDS011;67394;52.522;13.622;2023-06-10T02:36:15;3.40;;;2.03;;
78143;SDS011;67394;52.522;13.622;2023-06-10T02:38:42;3.40;;;2.08;;
78143;SDS011;67394;52.522;13.622;2023-06-10T02:41:08;5.13;;;1.83;;
78143;SDS011;67394;52.522;13.622;2023-06-10T02:43:35;4.05;;;1.98;;
78143;SDS011;67394;52.522;13.622;2023-06-10T02:46:01;7.32;;;2.53;;
78143;SDS011;67394;52.522;13.622;2023-06-10T02:48:28;4.82;;;2.42;;
78143;SDS011;67394;52.522;13.622;2023-06-10T02:50:54;1.75;;;1.60;;
78143;SDS011;67394;52.522;13.622;2023-06-10T02:53:21;3.55;;;2.55;;
78143;SDS011;67394;52.522;13.622;2023-06-10T02:55:47;2.47;;;2.05;;
78143;SDS011;67394;52.522;13.622;2023-06-10T02:58:14;2.55;;;1.55;;
78143;SDS011;67394;52.522;13.622;2023-06-10T03:00:40;2.13;;;1.63;;
78143;SDS011;67394;52.522;13.622;2023-06-10T03:03:06;2.30;;;1.88;;
78143;SDS011;67394;52.522;13.622;2023-06-10T03:05:33;5.00;;;2.17;;
78143;SDS011;67394;52.522;13.622;2023-06-10T03:07:59;3.28;;;2.40;;
78143;SDS011;67394;52.522;13.622;2023-06-10T03:10:26;5.05;;;2.13;;
78143;SDS011;67394;52.522;13.622;2023-06-10T03:12:52;2.22;;;1.95;;
78143;SDS011;67394;52.522;13.622;2023-06-10T03:15:18;2.88;;;2.15;;
78143;SDS011;67394;52.522;13.622;2023-06-10T03:17:45;5.63;;;2.28;;
78143;SDS011;67394;52.522;13.622;2023-06-10T03:20:12;5.82;;;2.30;;
78143;SDS011;67394;52.522;13.622;2023-06-10T03:22:38;4.50;;;2.50;;
78143;SDS011;67394;52.522;13.622;2023-06-10T03:25:05;2.15;;;1.85;;
78143;SDS011;67394;52.522;13.622;2023-06-10T03:27:32;3.38;;;2.63;;
78143;SDS011;67394;52.522;13.622;2023-06-10T03:29:59;4.10;;;2.00;;
78143;SDS011;67394;52.522;13.622;2023-06-10T03:32:25;2.75;;;2.33;;
78143;SDS011;67394;52.522;13.622;2023-06-10T03:34:52;2.42;;;2.03;;
78143;SDS011;67394;52.522;13.622;2023-06-10T03:37:18;2.55;;;1.77;;
78143;SDS011;67394;52.522;13.622;2023-06-10T03:39:44;3.47;;;2.15;;
78143;SDS011;67394;52.522;13.622;2023-06-10T03:42:11;3.03;;;2.30;;
78143;SDS011;67394;52.522;13.622;2023-06-10T03:44:37;3.60;;;2.08;;
78143;SDS011;67394;52.522;13.622;2023-06-10T03:47:04;4.43;;;2.28;;
78143;SDS011;67394;52.522;13.622;2023-06-10T03:49:31;2.50;;;1.95;;
78143;SDS011;67394;52.522;13.622;2023-06-10T03:51:57;3.10;;;1.70;;
78143;SDS011;67394;52.522;13.622;2023-06-10T03:54:23;4.95;;;2.10;;
78143;SDS011;67394;52.522;13.622;2023-06-10T03:56:50;4.05;;;2.03;;
78143;SDS011;67394;52.522;13.622;2023-06-10T03:59:16;2.97;;;2.20;;
78143;SDS011;67394;52.522;13.622;2023-06-10T04:01:43;3.10;;;2.60;;
78143;SDS011;67394;52.522;13.622;2023-06-10T04:04:09;3.28;;;2.65;;
78143;SDS011;67394;52.522;13.622;2023-06-10T04:06:36;3.00;;;1.77;;
78143;SDS011;67394;52.522;13.622;2023-06-10T04:09:02;2.72;;;1.90;;
78143;SDS011;67394;52.522;13.622;2023-06-10T04:11:29;4.30;;;2.30;;
78143;SDS011;67394;52.522;13.622;2023-06-10T04:13:55;4.70;;;2.33;;
78143;SDS011;67394;52.522;13.622;2023-06-10T04:16:21;3.85;;;2.55;;
78143;SDS011;67394;52.522;13.622;2023-06-10T04:18:48;5.43;;;3.20;;
78143;SDS011;67394;52.522;13.622;2023-06-10T04:21:14;1.95;;;1.73;;
78143;SDS011;67394;52.522;13.622;2023-06-10T04:23:40;4.45;;;2.10;;
78143;SDS011;67394;52.522;13.622;2023-06-10T04:26:07;3.78;;;2.42;;
78143;SDS011;67394;52.522;13.622;2023-06-10T04:28:33;3.67;;;2.75;;
78143;SDS011;67394;52.522;13.622;2023-06-10T04:31:00;3.17;;;2.35;;
78143;SDS011;67394;52.522;13.622;2023-06-10T04:33:26;3.85;;;2.08;;
78143;SDS011;67394;52.522;13.622;2023-06-10T04:35:53;3.03;;;2.40;;
78143;SDS011;67394;52.522;13.622;2023-06-10T04:38:19;3.75;;;2.40;;
78143;SDS011;67394;52.522;13.622;2023-06-10T04:40:45;7.68;;;3.50;;
78143;SDS011;67394;52.522;13.622;2023-06-10T04:43:12;3.72;;;2.53;;
78143;SDS011;67394;52.522;13.622;2023-06-10T04:45:38;5.63;;;2.72;;
78143;SDS011;67394;52.522;13.622;2023-06-10T04:48:05;2.55;;;2.22;;
78143;SDS011;67394;52.522;13.622;2023-06-10T04:50:32;5.00;;;2.45;;
78143;SDS011;67394;52.522;13.622;2023-06-10T04:52:58;3.03;;;1.95;;
78143;SDS011;67394;52.522;13.622;2023-06-10T04:55:25;4.90;;;2.65;;
78143;SDS011;67394;52.522;13.622;2023-06-10T04:57:51;2.88;;;2.00;;
78143;SDS011;67394;52.522;13.622;2023-06-10T05:00:18;3.50;;;1.98;;
78143;SDS011;67394;52.522;13.622;2023-06-10T05:02:44;4.78;;;2.90;;
78143;SDS011;67394;52.522;13.622;2023-06-10T05:05:11;5.90;;;2.35;;
78143;SDS011;67394;52.522;13.622;2023-06-10T05:07:37;2.95;;;1.85;;
78143;SDS011;67394;52.522;13.622;2023-06-10T05:10:04;5.60;;;2.67;;
78143;SDS011;67394;52.522;13.622;2023-06-10T05:12:31;3.13;;;2.67;;
78143;SDS011;67394;52.522;13.622;2023-06-10T05:14:57;3.67;;;2.67;;
78143;SDS011;67394;52.522;13.622;2023-06-10T05:17:24;3.55;;;2.40;;
78143;SDS011;67394;52.522;13.622;2023-06-10T05:19:50;3.10;;;2.47;;
78143;SDS011;67394;52.522;13.622;2023-06-10T05:22:17;3.83;;;2.38;;
78143;SDS011;67394;52.522;13.622;2023-06-10T05:24:44;4.72;;;2.70;;
78143;SDS011;67394;52.522;13.622;2023-06-10T05:27:10;2.90;;;2.20;;
78143;SDS011;67394;52.522;13.622;2023-06-10T05:29:37;4.35;;;2.45;;
78143;SDS011;67394;52.522;13.622;2023-06-10T05:34:30;2.80;;;2.28;;
78143;SDS011;67394;52.522;13.622;2023-06-10T05:39:23;3.05;;;2.58;;
78143;SDS011;67394;52.522;13.622;2023-06-10T05:41:49;2.90;;;2.15;;
78143;SDS011;67394;52.522;13.622;2023-06-10T05:44:16;3.38;;;2.72;;
78143;SDS011;67394;52.522;13.622;2023-06-10T05:46:42;4.43;;;2.72;;
78143;SDS011;67394;52.522;13.622;2023-06-10T05:49:09;3.72;;;2.58;;
78143;SDS011;67394;52.522;13.622;2023-06-10T05:51:35;5.28;;;3.22;;
78143;SDS011;67394;52.522;13.622;2023-06-10T05:54:03;4.22;;;2.30;;
78143;SDS011;67394;52.522;13.622;2023-06-10T05:56:30;3.83;;;2.67;;
78143;SDS011;67394;52.522;13.622;2023-06-10T05:58:56;3.25;;;2.63;;
78143;SDS011;67394;52.522;13.622;2023-06-10T06:01:23;2.45;;;2.10;;
78143;SDS011;67394;52.522;13.622;2023-06-10T06:03:49;5.10;;;2.80;;
78143;SDS011;67394;52.522;13.622;2023-06-10T06:06:16;5.30;;;2.70;;
78143;SDS011;67394;52.522;13.622;2023-06-10T06:08:42;3.28;;;2.38;;
78143;SDS011;67394;52.522;13.622;2023-06-10T06:11:09;3.63;;;2.22;;
78143;SDS011;67394;52.522;13.622;2023-06-10T06:13:37;3.25;;;2.25;;
78143;SDS011;67394;52.522;13.622;2023-06-10T06:16:04;4.15;;;2.67;;
78143;SDS011;67394;52.522;13.622;2023-06-10T06:18:30;3.53;;;2.95;;
78143;SDS011;67394;52.522;13.622;2023-06-10T06:20:57;5.40;;;2.85;;
78143;SDS011;67394;52.522;13.622;2023-06-10T06:23:23;5.40;;;2.63;;
78143;SDS011;67394;52.522;13.622;2023-06-10T06:25:49;2.65;;;2.17;;
78143;SDS011;67394;52.522;13.622;2023-06-10T06:28:16;4.38;;;2.95;;
78143;SDS011;67394;52.522;13.622;2023-06-10T06:30:42;3.83;;;2.42;;
78143;SDS011;67394;52.522;13.622;2023-06-10T06:33:09;3.20;;;2.60;;
78143;SDS011;67394;52.522;13.622;2023-06-10T06:35:35;4.13;;;2.90;;
78143;SDS011;67394;52.522;13.622;2023-06-10T06:38:02;3.53;;;2.63;;
78143;SDS011;67394;52.522;13.622;2023-06-10T06:40:28;4.03;;;2.17;;
78143;SDS011;67394;52.522;13.622;2023-06-10T06:42:55;3.40;;;2.90;;
78143;SDS011;67394;52.522;13.622;2023-06-10T06:45:21;4.30;;;3.03;;
78143;SDS011;67394;52.522;13.622;2023-06-10T06:50:14;4.07;;;2.88;;
78143;SDS011;67394;52.522;13.622;2023-06-10T06:52:41;3.55;;;2.60;;
78143;SDS011;67394;52.522;13.622;2023-06-10T06:55:07;4.55;;;3.05;;
78143;SDS011;67394;52.522;13.622;2023-06-10T06:57:35;3.80;;;3.08;;
78143;SDS011;67394;52.522;13.622;2023-06-10T07:00:01;6.93;;;3.63;;
78143;SDS011;67394;52.522;13.622;2023-06-10T07:02:28;4.47;;;3.00;;
78143;SDS011;67394;52.522;13.622;2023-06-10T07:04:55;3.95;;;3.13;;
78143;SDS011;67394;52.522;13.622;2023-06-10T07:07:21;5.22;;;3.20;;
78143;SDS011;67394;52.522;13.622;2023-06-10T07:09:48;4.65;;;3.42;;
78143;SDS011;67394;52.522;13.622;2023-06-10T07:12:14;4.50;;;3.50;;
78143;SDS011;67394;52.522;13.622;2023-06-10T07:14:41;4.40;;;3.10;;
78143;SDS011;67394;52.522;13.622;2023-06-10T07:17:07;4.07;;;3.00;;
78143;SDS011;67394;52.522;13.622;2023-06-10T07:19:34;4.22;;;3.67;;
78143;SDS011;67394;52.522;13.622;2023-06-10T07:22:00;5.03;;;3.38;;
78143;SDS011;67394;52.522;13.622;2023-06-10T07:24:27;3.67;;;3.13;;
78143;SDS011;67394;52.522;13.622;2023-06-10T07:26:53;5.10;;;3.78;;
78143;SDS011;67394;52.522;13.622;2023-06-10T07:29:19;3.92;;;3.10;;
78143;SDS011;67394;52.522;13.622;2023-06-10T07:31:46;3.97;;;2.80;;
78143;SDS011;67394;52.522;13.622;2023-06-10T07:34:12;4.13;;;3.47;;
78143;SDS011;67394;52.522;13.622;2023-06-10T07:36:39;3.90;;;3.28;;
78143;SDS011;67394;52.522;13.622;2023-06-10T07:39:05;4.00;;;3.38;;
78143;SDS011;67394;52.522;13.622;2023-06-10T07:41:32;4.55;;;2.90;;
78143;SDS011;67394;52.522;13.622;2023-06-10T07:43:58;4.72;;;3.22;;
78143;SDS011;67394;52.522;13.622;2023-06-10T07:46:25;5.13;;;3.70;;
78143;SDS011;67394;52.522;13.622;2023-06-10T07:48:51;5.25;;;3.42;;
78143;SDS011;67394;52.522;13.622;2023-06-10T07:51:18;5.75;;;3.67;;
78143;SDS011;67394;52.522;13.622;2023-06-10T07:53:44;5.03;;;3.97;;
78143;SDS011;67394;52.522;13.622;2023-06-10T07:56:11;6.80;;;4.20;;
78143;SDS011;67394;52.522;13.622;2023-06-10T07:58:37;4.72;;;3.67;;
78143;SDS011;67394;52.522;13.622;2023-06-10T08:01:03;4.70;;;3.92;;
78143;SDS011;67394;52.522;13.622;2023-06-10T08:03:30;3.83;;;3.42;;
78143;SDS011;67394;52.522;13.622;2023-06-10T08:05:56;4.88;;;3.33;;
78143;SDS011;67394;52.522;13.622;2023-06-10T08:08:23;4.80;;;3.50;;
78143;SDS011;67394;52.522;13.622;2023-06-10T08:10:49;4.53;;;3.67;;
78143;SDS011;67394;52.522;13.622;2023-06-10T08:13:16;5.25;;;3.95;;
78143;SDS011;67394;52.522;13.622;2023-06-10T08:15:42;4.80;;;4.10;;
78143;SDS011;67394;52.522;13.622;2023-06-10T08:18:09;5.30;;;4.07;;
78143;SDS011;67394;52.522;13.622;2023-06-10T08:20:35;5.63;;;3.50;;
78143;SDS011;67394;52.522;13.622;2023-06-10T08:23:01;7.28;;;4.00;;
78143;SDS011;67394;52.522;13.622;2023-06-10T08:25:28;5.20;;;4.45;;
78143;SDS011;67394;52.522;13.622;2023-06-10T08:27:54;4.30;;;3.90;;
78143;SDS011;67394;52.522;13.622;2023-06-10T08:30:21;4.32;;;3.92;;
78143;SDS011;67394;52.522;13.622;2023-06-10T08:32:47;4.93;;;3.65;;
78143;SDS011;67394;52.522;13.622;2023-06-10T08:35:14;4.38;;;3.50;;
78143;SDS011;67394;52.522;13.622;2023-06-10T08:37:40;5.93;;;3.95;;
78143;SDS011;67394;52.522;13.622;2023-06-10T08:40:07;5.50;;;4.28;;
78143;SDS011;67394;52.522;13.622;2023-06-10T08:42:43;5.05;;;3.75;;
78143;SDS011;67394;52.522;13.622;2023-06-10T08:45:18;4.97;;;3.92;;
78143;SDS011;67394;52.522;13.622;2023-06-10T08:47:45;5.40;;;3.45;;
78143;SDS011;67394;52.522;13.622;2023-06-10T08:50:12;4.57;;;4.10;;
78143;SDS011;67394;52.522;13.622;2023-06-10T08:52:43;4.68;;;4.00;;
78143;SDS011;67394;52.522;13.622;2023-06-10T08:55:11;6.32;;;4.07;;
78143;SDS011;67394;52.522;13.622;2023-06-10T08:57:44;4.82;;;4.03;;
78143;SDS011;67394;52.522;13.622;2023-06-10T09:00:12;5.47;;;3.92;;
78143;SDS011;67394;52.522;13.622;2023-06-10T09:02:39;7.82;;;4.35;;
78143;SDS011;67394;52.522;13.622;2023-06-10T09:05:06;7.18;;;4.55;;
78143;SDS011;67394;52.522;13.622;2023-06-10T09:07:34;5.65;;;3.88;;
78143;SDS011;67394;52.522;13.622;2023-06-10T09:10:03;4.05;;;3.38;;
78143;SDS011;67394;52.522;13.622;2023-06-10T09:12:30;5.32;;;3.97;;
78143;SDS011;67394;52.522;13.622;2023-06-10T09:14:56;5.82;;;4.22;;
78143;SDS011;67394;52.522;13.622;2023-06-10T09:17:23;5.82;;;4.00;;
78143;SDS011;67394;52.522;13.622;2023-06-10T09:19:50;4.97;;;3.65;;
78143;SDS011;67394;52.522;13.622;2023-06-10T09:22:18;4.28;;;3.67;;
78143;SDS011;67394;52.522;13.622;2023-06-10T09:24:46;4.70;;;3.67;;
78143;SDS011;67394;52.522;13.622;2023-06-10T09:27:13;5.05;;;4.18;;
78143;SDS011;67394;52.522;13.622;2023-06-10T09:29:52;6.10;;;4.25;;
78143;SDS011;67394;52.522;13.622;2023-06-10T09:32:20;4.90;;;4.32;;
78143;SDS011;67394;52.522;13.622;2023-06-10T09:34:47;4.18;;;3.58;;
78143;SDS011;67394;52.522;13.622;2023-06-10T09:37:19;3.63;;;3.15;;
78143;SDS011;67394;52.522;13.622;2023-06-10T09:40:02;4.63;;;3.60;;
78143;SDS011;67394;52.522;13.622;2023-06-10T09:42:29;4.80;;;3.40;;
78143;SDS011;67394;52.522;13.622;2023-06-10T09:44:58;4.47;;;3.05;;
78143;SDS011;67394;52.522;13.622;2023-06-10T09:47:25;4.30;;;3.55;;
78143;SDS011;67394;52.522;13.622;2023-06-10T09:49:51;5.00;;;3.65;;
78143;SDS011;67394;52.522;13.622;2023-06-10T09:52:21;5.97;;;3.58;;
78143;SDS011;67394;52.522;13.622;2023-06-10T09:54:52;7.10;;;3.58;;
78143;SDS011;67394;52.522;13.622;2023-06-10T09:57:20;4.60;;;3.35;;
78143;SDS011;67394;52.522;13.622;2023-06-10T09:59:47;3.80;;;3.08;;
78143;SDS011;67394;52.522;13.622;2023-06-10T10:02:19;4.43;;;3.65;;
78143;SDS011;67394;52.522;13.622;2023-06-10T10:04:45;4.55;;;3.50;;
78143;SDS011;67394;52.522;13.622;2023-06-10T10:09:40;3.08;;;2.75;;
78143;SDS011;67394;52.522;13.622;2023-06-10T10:12:11;4.38;;;3.05;;
78143;SDS011;67394;52.522;13.622;2023-06-10T10:14:39;3.50;;;2.85;;
78143;SDS011;67394;52.522;13.622;2023-06-10T10:17:09;3.15;;;2.55;;
78143;SDS011;67394;52.522;13.622;2023-06-10T10:19:38;4.65;;;2.72;;
78143;SDS011;67394;52.522;13.622;2023-06-10T10:22:14;3.70;;;2.97;;
78143;SDS011;67394;52.522;13.622;2023-06-10T10:24:51;2.88;;;2.63;;
78143;SDS011;67394;52.522;13.622;2023-06-10T10:27:25;6.55;;;2.97;;
78143;SDS011;67394;52.522;13.622;2023-06-10T10:29:54;5.10;;;3.47;;
78143;SDS011;67394;52.522;13.622;2023-06-10T10:32:22;2.88;;;2.17;;
78143;SDS011;67394;52.522;13.622;2023-06-10T10:35:08;3.72;;;2.65;;
78143;SDS011;67394;52.522;13.622;2023-06-10T10:37:38;2.80;;;2.30;;
78143;SDS011;67394;52.522;13.622;2023-06-10T10:40:05;2.83;;;2.17;;
78143;SDS011;67394;52.522;13.622;2023-06-10T10:42:34;3.65;;;2.40;;
78143;SDS011;67394;52.522;13.622;2023-06-10T10:45:01;3.20;;;2.42;;
78143;SDS011;67394;52.522;13.622;2023-06-10T10:47:28;3.60;;;2.58;;
78143;SDS011;67394;52.522;13.622;2023-06-10T10:49:57;4.53;;;2.78;;
78143;SDS011;67394;52.522;13.622;2023-06-10T10:52:23;3.15;;;2.78;;
78143;SDS011;67394;52.522;13.622;2023-06-10T10:54:52;3.50;;;2.60;;
78143;SDS011;67394;52.522;13.622;2023-06-10T10:57:20;3.58;;;2.92;;
78143;SDS011;67394;52.522;13.622;2023-06-10T11:02:18;5.35;;;3.65;;
78143;SDS011;67394;52.522;13.622;2023-06-10T11:04:48;3.75;;;2.90;;
78143;SDS011;67394;52.522;13.622;2023-06-10T11:07:15;3.75;;;2.80;;
78143;SDS011;67394;52.522;13.622;2023-06-10T11:10:29;3.05;;;2.35;;
78143;SDS011;67394;52.522;13.622;2023-06-10T11:15:13;3.85;;;2.40;;
78143;SDS011;67394;52.522;13.622;2023-06-10T11:20:55;4.03;;;2.85;;
78143;SDS011;67394;52.522;13.622;2023-06-10T11:26:16;3.42;;;2.78;;
78143;SDS011;67394;52.522;13.622;2023-06-10T11:28:42;7.93;;;3.20;;
78143;SDS011;67394;52.522;13.622;2023-06-10T11:31:21;4.28;;;3.42;;
78143;SDS011;67394;52.522;13.622;2023-06-10T11:33:52;3.20;;;2.60;;
78143;SDS011;67394;52.522;13.622;2023-06-10T11:36:21;4.00;;;3.20;;
78143;SDS011;67394;52.522;13.622;2023-06-10T11:38:48;3.80;;;3.13;;
78143;SDS011;67394;52.522;13.622;2023-06-10T11:41:14;3.22;;;2.92;;
78143;SDS011;67394;52.522;13.622;2023-06-10T11:43:44;4.30;;;3.05;;
78143;SDS011;67394;52.522;13.622;2023-06-10T11:46:11;3.63;;;3.25;;
78143;SDS011;67394;52.522;13.622;2023-06-10T11:48:54;4.53;;;3.45;;
78143;SDS011;67394;52.522;13.622;2023-06-10T11:51:24;3.55;;;3.22;;
78143;SDS011;67394;52.522;13.622;2023-06-10T11:53:51;4.28;;;3.60;;
78143;SDS011;67394;52.522;13.622;2023-06-10T11:56:25;5.47;;;3.63;;
78143;SDS011;67394;52.522;13.622;2023-06-10T11:58:53;4.05;;;3.58;;
78143;SDS011;67394;52.522;13.622;2023-06-10T12:01:22;4.13;;;3.58;;
78143;SDS011;67394;52.522;13.622;2023-06-10T12:04:11;3.80;;;3.30;;
78143;SDS011;67394;52.522;13.622;2023-06-10T12:06:45;4.07;;;3.65;;
78143;SDS011;67394;52.522;13.622;2023-06-10T12:12:02;4.57;;;3.90;;
78143;SDS011;67394;52.522;13.622;2023-06-10T12:17:21;4.20;;;3.80;;
78143;SDS011;67394;52.522;13.622;2023-06-10T12:19:49;5.00;;;3.63;;
78143;SDS011;67394;52.522;13.622;2023-06-10T12:22:17;4.90;;;4.00;;
78143;SDS011;67394;52.522;13.622;2023-06-10T12:24:44;6.70;;;4.50;;
78143;SDS011;67394;52.522;13.622;2023-06-10T12:27:12;5.15;;;4.38;;
78143;SDS011;67394;52.522;13.622;2023-06-10T12:29:38;4.55;;;3.85;;
78143;SDS011;67394;52.522;13.622;2023-06-10T12:34:35;5.68;;;3.97;;
78143;SDS011;67394;52.522;13.622;2023-06-10T12:37:04;5.05;;;4.30;;
78143;SDS011;67394;52.522;13.622;2023-06-10T12:39:33;6.25;;;4.75;;
78143;SDS011;67394;52.522;13.622;2023-06-10T12:42:00;4.97;;;4.47;;
78143;SDS011;67394;52.522;13.622;2023-06-10T12:44:33;4.20;;;3.78;;
78143;SDS011;67394;52.522;13.622;2023-06-10T12:47:00;4.63;;;4.10;;
78143;SDS011;67394;52.522;13.622;2023-06-10T12:49:33;5.30;;;4.30;;
78143;SDS011;67394;52.522;13.622;2023-06-10T12:51:59;4.90;;;3.67;;
78143;SDS011;67394;52.522;13.622;2023-06-10T12:56:52;4.55;;;4.10;;
78143;SDS011;67394;52.522;13.622;2023-06-10T13:01:49;4.40;;;4.00;;
78143;SDS011;67394;52.522;13.622;2023-06-10T13:04:19;4.90;;;4.05;;
78143;SDS011;67394;52.522;13.622;2023-06-10T13:06:47;4.50;;;4.10;;
78143;SDS011;67394;52.522;13.622;2023-06-10T13:09:14;4.35;;;3.95;;
78143;SDS011;67394;52.522;13.622;2023-06-10T13:11:41;7.03;;;4.10;;
78143;SDS011;67394;52.522;13.622;2023-06-10T13:14:08;5.13;;;3.75;;
78143;SDS011;67394;52.522;13.622;2023-06-10T13:16:35;4.55;;;4.15;;
78143;SDS011;67394;52.522;13.622;2023-06-10T13:19:02;4.43;;;3.78;;
78143;SDS011;67394;52.522;13.622;2023-06-10T13:23:55;5.88;;;4.25;;
78143;SDS011;67394;52.522;13.622;2023-06-10T13:26:21;4.50;;;4.10;;
78143;SDS011;67394;52.522;13.622;2023-06-10T13:28:48;4.00;;;3.60;;
78143;SDS011;67394;52.522;13.622;2023-06-10T13:31:14;5.15;;;4.28;;
78143;SDS011;67394;52.522;13.622;2023-06-10T13:33:41;5.18;;;4.18;;
78143;SDS011;67394;52.522;13.622;2023-06-10T13:38:34;4.47;;;3.03;;
78143;SDS011;67394;52.522;13.622;2023-06-10T13:43:30;4.50;;;4.03;;
78143;SDS011;67394;52.522;13.622;2023-06-10T13:45:56;4.65;;;3.85;;
78143;SDS011;67394;52.522;13.622;2023-06-10T13:48:22;4.32;;;3.90;;
78143;SDS011;67394;52.522;13.622;2023-06-10T13:53:15;4.13;;;3.28;;
78143;SDS011;67394;52.522;13.622;2023-06-10T13:55:42;4.65;;;3.83;;
78143;SDS011;67394;52.522;13.622;2023-06-10T14:00:34;4.13;;;3.72;;
78143;SDS011;67394;52.522;13.622;2023-06-10T14:05:27;5.18;;;4.00;;
78143;SDS011;67394;52.522;13.622;2023-06-10T14:07:57;3.67;;;3.25;;
78143;SDS011;67394;52.522;13.622;2023-06-10T14:10:23;4.68;;;4.07;;
78143;SDS011;67394;52.522;13.622;2023-06-10T14:12:50;4.60;;;3.88;;
78143;SDS011;67394;52.522;13.622;2023-06-10T14:17:44;4.82;;;3.95;;
78143;SDS011;67394;52.522;13.622;2023-06-10T14:20:11;3.97;;;3.67;;
78143;SDS011;67394;52.522;13.622;2023-06-10T14:22:38;5.40;;;3.70;;
78143;SDS011;67394;52.522;13.622;2023-06-10T14:25:05;3.70;;;3.13;;
78143;SDS011;67394;52.522;13.622;2023-06-10T14:27:33;4.43;;;3.90;;
78143;SDS011;67394;52.522;13.622;2023-06-10T14:29:59;4.68;;;3.80;;
78143;SDS011;67394;52.522;13.622;2023-06-10T14:32:26;5.78;;;4.00;;
78143;SDS011;67394;52.522;13.622;2023-06-10T14:34:53;4.03;;;3.63;;
78143;SDS011;67394;52.522;13.622;2023-06-10T14:37:20;3.80;;;3.40;;
78143;SDS011;67394;52.522;13.622;2023-06-10T14:39:47;4.07;;;3.40;;
78143;SDS011;67394;52.522;13.622;2023-06-10T14:42:14;3.75;;;3.35;;
78143;SDS011;67394;52.522;13.622;2023-06-10T14:44:41;4.78;;;3.67;;
78143;SDS011;67394;52.522;13.622;2023-06-10T14:47:07;4.38;;;3.67;;
78143;SDS011;67394;52.522;13.622;2023-06-10T14:49:35;4.93;;;3.55;;
78143;SDS011;67394;52.522;13.622;2023-06-10T14:52:02;3.75;;;3.38;;
78143;SDS011;67394;52.522;13.622;2023-06-10T14:54:28;4.72;;;3.17;;
78143;SDS011;67394;52.522;13.622;2023-06-10T14:56:55;4.22;;;3.28;;
78143;SDS011;67394;52.522;13.622;2023-06-10T15:01:48;5.45;;;3.33;;
78143;SDS011;67394;52.522;13.622;2023-06-10T15:04:15;3.83;;;3.15;;
78143;SDS011;67394;52.522;13.622;2023-06-10T15:06:42;3.80;;;3.40;;
78143;SDS011;67394;52.522;13.622;2023-06-10T15:09:09;4.05;;;3.63;;
78143;SDS011;67394;52.522;13.622;2023-06-10T15:11:35;3.72;;;2.50;;
78143;SDS011;67394;52.522;13.622;2023-06-10T15:14:02;3.88;;;3.28;;
78143;SDS011;67394;52.522;13.622;2023-06-10T15:16:29;4.55;;;3.40;;
78143;SDS011;67394;52.522;13.622;2023-06-10T15:18:56;3.67;;;2.70;;
78143;SDS011;67394;52.522;13.622;2023-06-10T15:21:22;3.70;;;2.80;;
78143;SDS011;67394;52.522;13.622;2023-06-10T15:23:49;3.40;;;2.65;;
78143;SDS011;67394;52.522;13.622;2023-06-10T15:26:15;3.90;;;2.67;;
78143;SDS011;67394;52.522;13.622;2023-06-10T15:28:42;3.80;;;3.03;;
78143;SDS011;67394;52.522;13.622;2023-06-10T15:31:09;3.63;;;2.70;;
78143;SDS011;67394;52.522;13.622;2023-06-10T15:33:36;3.85;;;2.85;;
78143;SDS011;67394;52.522;13.622;2023-06-10T15:36:03;4.15;;;3.08;;
78143;SDS011;67394;52.522;13.622;2023-06-10T15:38:30;3.38;;;2.75;;
78143;SDS011;67394;52.522;13.622;2023-06-10T15:40:57;3.75;;;2.92;;